createdAt,value
2022-08-22T00:00:13.659Z,20.50
2022-08-22T00:02:44.477Z,21.60
2022-08-22T00:02:58.379Z,22.30
2022-08-22T00:02:59.281Z,20.60
2022-08-22T00:03:00.129Z,21.80
2022-08-22T00:03:33.999Z,20.50
2022-08-22T00:06:46.620Z,20.40
2022-08-22T00:10:01.599Z,20.40
2022-08-22T00:13:08.671Z,20.30
2022-08-22T00:16:17.761Z,20.30
2022-08-22T00:19:31.799Z,20.20
2022-08-22T00:22:41.225Z,20.20
2022-08-22T00:25:51.312Z,20.10
2022-08-22T00:29:01.627Z,20.00
2022-08-22T00:32:11.358Z,19.90
2022-08-22T00:35:24.487Z,19.80
2022-08-22T00:38:31.389Z,19.80
2022-08-22T00:42:00.741Z,19.70
2022-08-22T00:45:25.292Z,19.80
2022-08-22T00:48:56.948Z,19.90
2022-08-22T00:52:55.184Z,20.00
2022-08-22T00:56:16.003Z,19.90
2022-08-22T00:59:56.151Z,19.90
2022-08-22T01:03:38.407Z,19.90
2022-08-22T01:06:51.764Z,20.00
2022-08-22T01:10:10.416Z,20.00
2022-08-22T01:13:38.415Z,19.80
2022-08-22T01:16:58.360Z,19.90
2022-08-22T01:20:38.592Z,19.70
2022-08-22T01:24:27.933Z,19.70
2022-08-22T01:28:13.858Z,19.60
2022-08-22T01:31:56.668Z,19.60
2022-08-22T01:35:16.706Z,19.60
2022-08-22T01:38:37.942Z,19.50
2022-08-22T01:42:04.998Z,19.50
2022-08-22T01:45:47.703Z,19.50
2022-08-22T01:48:54.401Z,19.50
2022-08-22T01:52:05.548Z,19.50
2022-08-22T01:55:12.976Z,19.50
2022-08-22T01:58:21.080Z,19.40
2022-08-22T02:01:35.655Z,19.30
2022-08-22T02:04:44.459Z,19.40
2022-08-22T02:07:55.576Z,19.30
2022-08-22T02:11:04.175Z,19.20
2022-08-22T02:14:19.778Z,19.10
2022-08-22T02:17:27.183Z,19.20
2022-08-22T02:20:34.847Z,19.10
2022-08-22T02:23:51.672Z,19.10
2022-08-22T02:27:07.931Z,19.10
2022-08-22T02:30:15.100Z,19.10
2022-08-22T02:33:30.977Z,19.10
2022-08-22T02:36:46.988Z,19.20
2022-08-22T02:40:02.776Z,19.10
2022-08-22T02:43:15.403Z,19.20
2022-08-22T02:46:26.003Z,19.10
2022-08-22T02:49:43.961Z,19.20
2022-08-22T02:52:58.579Z,19.10
2022-08-22T02:56:07.275Z,19.00
2022-08-22T02:59:30.580Z,19.00
2022-08-22T03:02:38.453Z,19.00
2022-08-22T03:05:52.180Z,19.00
2022-08-22T03:09:06.597Z,18.90
2022-08-22T03:12:21.193Z,18.90
2022-08-22T03:15:29.975Z,18.80
2022-08-22T03:18:45.760Z,18.70
2022-08-22T03:21:56.758Z,18.70
2022-08-22T03:25:11.113Z,18.80
2022-08-22T03:28:21.319Z,18.70
2022-08-22T03:31:26.782Z,18.70
2022-08-22T03:34:29.906Z,18.70
2022-08-22T03:37:40.534Z,18.70
2022-08-22T03:40:54.528Z,18.60
2022-08-22T03:44:19.082Z,18.70
2022-08-22T03:47:50.033Z,18.70
2022-08-22T03:51:37.860Z,18.70
2022-08-22T03:54:58.858Z,18.70
2022-08-22T03:58:29.571Z,18.60
2022-08-22T04:02:35.219Z,18.50
2022-08-22T04:05:54.286Z,18.60
2022-08-22T04:09:27.384Z,18.50
2022-08-22T04:13:12.648Z,18.50
2022-08-22T04:16:33.019Z,18.50
2022-08-22T04:20:16.642Z,18.50
2022-08-22T04:23:43.315Z,18.50
2022-08-22T04:26:51.712Z,18.40
2022-08-22T04:30:02.919Z,18.30
2022-08-22T04:33:11.086Z,18.40
2022-08-22T04:36:20.674Z,18.40
2022-08-22T04:39:36.743Z,18.40
2022-08-22T04:42:46.704Z,18.40
2022-08-22T04:45:56.709Z,18.30
2022-08-22T04:49:06.021Z,18.30
2022-08-22T04:52:19.513Z,18.20
2022-08-22T04:55:35.215Z,18.20
2022-08-22T04:58:59.123Z,18.20
2022-08-22T05:02:06.340Z,18.20
2022-08-22T05:05:14.012Z,18.20
2022-08-22T05:08:23.776Z,18.20
2022-08-22T05:11:27.805Z,18.20
2022-08-22T05:14:39.913Z,18.30
2022-08-22T05:17:44.891Z,18.30
2022-08-22T05:20:50.459Z,18.20
2022-08-22T05:23:59.217Z,18.20
2022-08-22T05:27:10.125Z,18.30
2022-08-22T05:30:21.708Z,18.40
2022-08-22T05:33:28.939Z,18.40
2022-08-22T05:36:36.592Z,18.40
2022-08-22T05:39:46.929Z,18.40
2022-08-22T05:42:50.509Z,18.30
2022-08-22T05:45:57.146Z,18.30
2022-08-22T05:49:03.169Z,18.40
2022-08-22T05:52:15.934Z,18.50
2022-08-22T05:55:28.519Z,18.50
2022-08-22T05:58:45.715Z,18.50
2022-08-22T06:02:00.851Z,18.60
2022-08-22T06:05:11.769Z,18.60
2022-08-22T06:08:21.304Z,18.70
2022-08-22T06:11:33.767Z,18.80
2022-08-22T06:14:43.981Z,18.80
2022-08-22T06:17:50.734Z,18.90
2022-08-22T06:20:57.318Z,18.90
2022-08-22T06:24:02.173Z,18.90
2022-08-22T06:27:11.246Z,19.00
2022-08-22T06:30:16.666Z,19.00
2022-08-22T06:33:25.178Z,19.00
2022-08-22T06:36:31.841Z,19.10
2022-08-22T06:39:36.519Z,19.20
2022-08-22T06:42:45.643Z,19.20
2022-08-22T06:45:49.626Z,19.30
2022-08-22T06:48:55.268Z,19.30
2022-08-22T06:52:02.350Z,19.40
2022-08-22T06:55:08.803Z,19.50
2022-08-22T06:58:18.373Z,19.60
2022-08-22T07:01:24.804Z,19.70
2022-08-22T07:04:29.138Z,19.70
2022-08-22T07:07:32.480Z,19.80
2022-08-22T07:10:35.778Z,19.90
2022-08-22T07:13:44.120Z,20.00
2022-08-22T07:16:55.137Z,20.00
2022-08-22T07:20:03.773Z,20.10
2022-08-22T07:23:10.386Z,20.20
2022-08-22T07:26:23.202Z,20.20
2022-08-22T07:29:36.079Z,20.30
2022-08-22T07:32:56.483Z,20.40
2022-08-22T07:36:31.070Z,20.60
2022-08-22T07:39:39.556Z,20.70
2022-08-22T07:42:48.059Z,20.70
2022-08-22T07:45:54.630Z,20.50
2022-08-22T07:49:10.077Z,20.70
2022-08-22T07:52:14.847Z,20.70
2022-08-22T07:55:20.353Z,20.80
2022-08-22T07:58:27.967Z,21.00
2022-08-22T08:01:31.701Z,20.90
2022-08-22T08:04:40.581Z,21.10
2022-08-22T08:07:46.116Z,21.20
2022-08-22T08:10:50.848Z,21.40
2022-08-22T08:13:57.859Z,21.30
2022-08-22T08:17:05.118Z,21.40
2022-08-22T08:20:12.600Z,21.50
2022-08-22T08:23:22.211Z,21.50
2022-08-22T08:26:33.404Z,21.60
2022-08-22T08:29:37.030Z,21.70
2022-08-22T08:32:42.393Z,21.90
2022-08-22T08:36:02.273Z,22.00
2022-08-22T08:39:17.553Z,22.10
2022-08-22T08:43:11.046Z,22.10
2022-08-22T08:46:50.209Z,22.20
2022-08-22T08:50:20.623Z,22.40
2022-08-22T08:53:50.903Z,22.50
2022-08-22T08:57:07.210Z,22.60
2022-08-22T09:00:15.833Z,22.60
2022-08-22T09:03:38.067Z,22.70
2022-08-22T09:07:25.980Z,22.80
2022-08-22T09:10:45.250Z,22.70
2022-08-22T09:14:00.343Z,22.80
2022-08-22T09:17:23.328Z,22.90
2022-08-22T09:20:50.574Z,23.10
2022-08-22T09:24:26.810Z,23.20
2022-08-22T09:27:36.266Z,23.30
2022-08-22T09:30:54.411Z,23.30
2022-08-22T09:34:05.236Z,23.10
2022-08-22T09:40:16.080Z,23.20
2022-08-22T09:40:45.938Z,23.40
2022-08-22T09:44:04.473Z,23.40
2022-08-22T09:47:17.642Z,23.40
2022-08-22T09:50:35.129Z,23.70
2022-08-22T09:53:53.026Z,23.90
2022-08-22T09:57:03.273Z,24.00
2022-08-22T10:00:22.650Z,24.10
2022-08-22T10:03:53.627Z,24.30
2022-08-22T10:07:12.213Z,24.40
2022-08-22T10:10:32.288Z,24.60
2022-08-22T10:14:00.458Z,24.70
2022-08-22T10:17:12.559Z,24.80
2022-08-22T10:20:21.963Z,24.90
2022-08-22T10:23:31.027Z,25.10
2022-08-22T10:26:43.424Z,25.20
2022-08-22T10:30:02.666Z,25.20
2022-08-22T10:33:14.790Z,25.30
2022-08-22T10:36:23.554Z,25.40
2022-08-22T10:39:39.903Z,25.50
2022-08-22T10:42:53.648Z,25.50
2022-08-22T10:46:04.399Z,25.40
2022-08-22T10:49:16.483Z,25.50
2022-08-22T10:52:26.271Z,25.50
2022-08-22T10:55:31.243Z,25.70
2022-08-22T10:58:40.013Z,25.70
2022-08-22T11:01:52.997Z,26.00
2022-08-22T11:05:16.270Z,26.20
2022-08-22T11:08:33.069Z,26.40
2022-08-22T11:11:44.706Z,26.60
2022-08-22T11:15:05.684Z,26.70
2022-08-22T11:18:21.494Z,26.80
2022-08-22T11:21:32.788Z,26.70
2022-08-22T11:25:04.222Z,26.90
2022-08-22T11:28:43.578Z,27.20
2022-08-22T11:32:05.827Z,27.30
2022-08-22T11:35:22.687Z,27.40
2022-08-22T11:38:36.138Z,27.50
2022-08-22T11:41:45.021Z,27.40
2022-08-22T11:44:58.629Z,27.50
2022-08-22T11:48:09.749Z,27.60
2022-08-22T11:51:24.987Z,27.50
2022-08-22T11:54:38.237Z,27.70
2022-08-22T11:57:48.334Z,27.80
2022-08-22T12:00:57.678Z,27.70
2022-08-22T12:04:12.901Z,27.60
2022-08-22T12:07:19.679Z,27.60
2022-08-22T12:10:28.607Z,27.70
2022-08-22T12:13:47.480Z,27.90
2022-08-22T12:17:05.708Z,28.10
2022-08-22T12:20:22.651Z,28.00
2022-08-22T12:24:19.157Z,27.90
2022-08-22T12:27:39.216Z,27.70
2022-08-22T12:31:00.836Z,27.70
2022-08-22T12:34:19.488Z,27.70
2022-08-22T12:37:29.312Z,27.90
2022-08-22T12:40:46.129Z,28.10
2022-08-22T12:44:00.475Z,28.10
2022-08-22T12:47:17.605Z,28.30
2022-08-22T12:50:32.608Z,28.40
2022-08-22T12:54:00.280Z,28.40
2022-08-22T12:57:23.732Z,28.50
2022-08-22T13:00:34.635Z,28.50
2022-08-22T13:03:44.976Z,28.60
2022-08-22T13:06:53.730Z,28.60
2022-08-22T13:10:01.824Z,28.80
2022-08-22T13:13:12.129Z,28.90
2022-08-22T13:16:19.558Z,29.10
2022-08-22T13:19:25.742Z,29.10
2022-08-22T13:22:33.138Z,29.20
2022-08-22T13:25:57.618Z,29.30
2022-08-22T13:29:24.534Z,29.30
2022-08-22T13:32:33.829Z,29.40
2022-08-22T13:35:50.563Z,29.50
2022-08-22T13:39:01.748Z,29.60
2022-08-22T13:42:14.618Z,29.60
2022-08-22T13:45:34.100Z,29.70
2022-08-22T13:48:49.476Z,29.70
2022-08-22T13:51:57.215Z,29.70
2022-08-22T13:55:12.328Z,29.80
2022-08-22T13:58:25.622Z,29.80
2022-08-22T14:01:40.201Z,29.90
2022-08-22T14:04:45.212Z,29.90
2022-08-22T14:07:58.965Z,30.00
2022-08-22T14:11:11.655Z,30.00
2022-08-22T14:14:23.876Z,29.90
2022-08-22T14:17:33.699Z,29.90
2022-08-22T14:20:38.280Z,29.90
2022-08-22T14:23:44.650Z,29.90
2022-08-22T14:26:57.958Z,29.80
2022-08-22T14:30:06.818Z,29.80
2022-08-22T14:33:23.648Z,29.60
2022-08-22T14:36:35.475Z,29.50
2022-08-22T14:39:46.887Z,29.60
2022-08-22T14:42:53.556Z,29.60
2022-08-22T14:46:02.022Z,29.60
2022-08-22T14:49:16.246Z,29.60
2022-08-22T14:52:35.327Z,29.60
2022-08-22T14:55:39.371Z,29.70
2022-08-22T14:58:51.515Z,29.60
2022-08-22T15:01:58.177Z,29.60
2022-08-22T15:05:14.273Z,29.60
2022-08-22T15:08:27.495Z,29.60
2022-08-22T15:11:32.344Z,29.40
2022-08-22T15:14:51.919Z,29.40
2022-08-22T15:17:57.437Z,29.50
2022-08-22T15:21:06.942Z,29.40
2022-08-22T15:24:15.173Z,29.20
2022-08-22T15:27:19.891Z,29.10
2022-08-22T15:30:44.378Z,29.00
2022-08-22T15:33:49.785Z,28.80
2022-08-22T15:37:29.442Z,28.70
2022-08-22T15:40:40.410Z,28.70
2022-08-22T15:43:48.558Z,28.50
2022-08-22T15:47:00.999Z,28.40
2022-08-22T15:50:10.996Z,28.40
2022-08-22T15:53:23.937Z,28.30
2022-08-22T15:56:29.881Z,28.30
2022-08-22T15:59:47.851Z,28.20
2022-08-22T16:03:00.926Z,28.20
2022-08-22T16:06:08.049Z,28.10
2022-08-22T16:09:35.331Z,27.90
2022-08-22T16:12:41.895Z,27.90
2022-08-22T16:16:03.533Z,27.90
2022-08-22T16:19:22.601Z,27.90
2022-08-22T16:23:06.742Z,27.80
2022-08-22T16:26:15.055Z,27.70
2022-08-22T16:29:33.945Z,27.60
2022-08-22T16:32:56.967Z,27.50
2022-08-22T16:36:38.912Z,27.40
2022-08-22T16:39:45.864Z,27.30
2022-08-22T16:42:54.035Z,27.20
2022-08-22T16:45:56.964Z,27.10
2022-08-22T16:49:02.504Z,27.10
2022-08-22T16:52:40.615Z,27.10
2022-08-22T16:55:50.643Z,27.00
2022-08-22T16:59:23.809Z,26.90
2022-08-22T17:02:44.498Z,26.80
2022-08-22T17:06:02.931Z,26.70
2022-08-22T17:09:23.587Z,26.70
2022-08-22T17:12:44.821Z,26.60
2022-08-22T17:16:02.015Z,26.40
2022-08-22T17:19:22.307Z,26.40
2022-08-22T17:22:33.968Z,26.30
2022-08-22T17:25:49.870Z,26.30
2022-08-22T17:29:06.050Z,26.20
2022-08-22T17:32:18.281Z,26.10
2022-08-22T17:35:32.845Z,26.10
2022-08-22T17:38:47.536Z,26.00
2022-08-22T17:41:58.659Z,25.90
2022-08-22T17:45:09.529Z,25.90
2022-08-22T17:48:17.694Z,25.80
2022-08-22T17:51:28.725Z,25.70
2022-08-22T17:54:40.375Z,25.70
2022-08-22T17:57:51.304Z,25.70
2022-08-22T18:01:03.707Z,25.50
2022-08-22T18:04:09.023Z,25.50
2022-08-22T18:07:49.377Z,25.40
2022-08-22T18:11:00.090Z,25.30
2022-08-22T18:14:09.421Z,25.20
2022-08-22T18:17:31.630Z,25.20
2022-08-22T18:20:40.892Z,25.10
2022-08-22T18:23:47.550Z,25.10
2022-08-22T18:26:59.316Z,25.00
2022-08-22T18:30:07.645Z,25.00
2022-08-22T18:33:19.314Z,25.00
2022-08-22T18:36:31.344Z,24.90
2022-08-22T18:39:43.788Z,24.80
2022-08-22T18:42:51.841Z,24.70
2022-08-22T18:46:04.093Z,24.70
2022-08-22T18:49:33.667Z,24.60
2022-08-22T18:52:40.777Z,24.50
2022-08-22T18:55:56.500Z,24.50
2022-08-22T18:59:12.316Z,24.40
2022-08-22T19:02:55.935Z,24.40
2022-08-22T19:06:32.943Z,24.30
2022-08-22T19:09:59.864Z,24.10
2022-08-22T19:13:22.176Z,24.00
2022-08-22T19:16:44.677Z,23.90
2022-08-22T19:20:15.642Z,23.90
2022-08-22T19:23:46.829Z,23.80
2022-08-22T19:27:10.342Z,23.70
2022-08-22T19:30:41.803Z,23.70
2022-08-22T19:33:50.295Z,23.60
2022-08-22T19:37:34.096Z,23.60
2022-08-22T19:40:58.396Z,23.50
2022-08-22T19:44:01.793Z,23.40
2022-08-22T19:47:24.006Z,23.50
2022-08-22T19:50:33.942Z,23.40
2022-08-22T19:53:47.339Z,23.30
2022-08-22T19:57:06.937Z,23.30
2022-08-22T20:00:18.119Z,23.20
2022-08-22T20:03:32.369Z,23.10
2022-08-22T20:06:44.303Z,23.00
2022-08-22T20:09:57.112Z,23.00
2022-08-22T20:13:08.645Z,23.00
2022-08-22T20:16:19.335Z,22.90
2022-08-22T20:19:22.776Z,22.80
2022-08-22T20:22:30.123Z,22.70
2022-08-22T20:25:50.299Z,22.70
2022-08-22T20:28:55.759Z,22.70
2022-08-22T20:31:59.865Z,22.60
2022-08-22T20:35:05.612Z,22.60
2022-08-22T20:38:13.013Z,22.50
2022-08-22T20:41:22.287Z,22.50
2022-08-22T20:44:31.657Z,22.50
2022-08-22T20:47:41.312Z,22.40
2022-08-22T20:50:45.389Z,22.40
2022-08-22T20:53:53.425Z,22.30
2022-08-22T20:57:00.156Z,22.20
2022-08-22T21:00:11.557Z,22.20
2022-08-22T21:03:24.823Z,22.20
2022-08-22T21:06:34.963Z,22.10
2022-08-22T21:10:07.081Z,22.10
2022-08-22T21:13:13.653Z,22.00
2022-08-22T21:16:19.817Z,22.00
2022-08-22T21:19:29.781Z,21.90
2022-08-22T21:22:33.848Z,21.90
2022-08-22T21:25:56.594Z,21.90
2022-08-22T21:29:03.495Z,21.90
2022-08-22T21:32:19.807Z,21.80
2022-08-22T21:35:28.381Z,21.80
2022-08-22T21:38:31.341Z,21.70
2022-08-22T21:41:38.568Z,21.70
2022-08-22T21:44:43.203Z,21.50
2022-08-22T21:47:47.437Z,21.40
2022-08-22T21:50:50.484Z,21.40
2022-08-22T21:54:27.969Z,21.40
2022-08-22T21:57:36.503Z,21.40
2022-08-22T22:00:49.536Z,21.20
2022-08-22T22:03:54.290Z,21.20
2022-08-22T22:06:57.269Z,21.20
2022-08-22T22:10:00.570Z,21.20
2022-08-22T22:13:03.822Z,21.20
2022-08-22T22:16:08.703Z,21.10
2022-08-22T22:19:14.152Z,21.10
2022-08-22T22:22:17.933Z,21.00
2022-08-22T22:25:40.973Z,20.90
2022-08-22T22:28:48.296Z,20.90
2022-08-22T22:31:51.237Z,20.80
2022-08-22T22:34:55.527Z,20.90
2022-08-22T22:38:00.356Z,20.90
2022-08-22T22:41:04.101Z,20.90
2022-08-22T22:44:07.783Z,20.80
2022-08-22T22:47:11.102Z,20.80
2022-08-22T22:50:15.368Z,20.70
2022-08-22T22:53:19.360Z,20.70
2022-08-22T22:56:24.563Z,20.70
2022-08-22T22:59:27.645Z,20.70
2022-08-22T23:02:30.574Z,20.60
2022-08-22T23:05:35.274Z,20.60
2022-08-22T23:08:38.178Z,20.50
2022-08-22T23:11:41.127Z,20.50
2022-08-22T23:14:44.363Z,20.40
2022-08-22T23:17:47.347Z,20.40
2022-08-22T23:20:51.596Z,20.40
2022-08-22T23:23:57.070Z,20.30
2022-08-22T23:27:00.389Z,20.30
2022-08-22T23:30:03.467Z,20.30
2022-08-22T23:33:06.490Z,20.30
2022-08-22T23:36:17.030Z,20.20
2022-08-22T23:39:21.535Z,20.20
2022-08-22T23:42:24.428Z,20.20
2022-08-22T23:45:27.339Z,20.10
2022-08-22T23:48:30.283Z,20.20
2022-08-22T23:51:35.197Z,20.10
2022-08-22T23:54:38.200Z,20.00
2022-08-22T23:57:41.183Z,20.00
